Vive — LLOF — position and weather

sailwx.info

Track history (hours):
 
Tides and Currents Weather Stations Pressure Air Temp Water Temp Dewpoint Dewpoint Depression Visibility Wind Speed Wind Dir Waves Ship Positions

Vive

Last reported at 2018-Jun-20 15:17 UTC. Time now 2018-Jun-20 22:32 UTC.
Position N 34°33' W 120°40'.

Length 16 m.

Type: Sailing vessel. MMSI: 257671570.

Date/timePositionNaut miles runAvg speedWind from/ knotsBaromVisibWave heightAir tempDewpointWater temp
2018-Jun-20 15:17N 34°33' W 120°40'2 5.6
2018-Jun-20 15:00N 34°32' W 120°39'3 5.3
2018-Jun-20 14:30N 34°30' W 120°37'3 5.6
2018-Jun-20 13:56N 34°28' W 120°34'3 6.2
2018-Jun-20 13:30N 34°26' W 120°32'3 6.9
2018-Jun-20 13:00N 34°26' W 120°27'1 1.5
2018-Jun-20 12:30N 34°27' W 120°27'0 0.0
2018-Jun-20 12:01N 34°27' W 120°27'0 0.0
2018-Jun-20 11:28N 34°27' W 120°27'0 0.0
2018-Jun-20 11:00N 34°27' W 120°27'0 0.0
2018-Jun-20 10:28N 34°27' W 120°27'0 0.0
2018-Jun-20 09:58N 34°27' W 120°27'0 0.0
2018-Jun-20 09:29N 34°27' W 120°27'0 0.0
2018-Jun-20 08:56N 34°27' W 120°27'0 0.0
2018-Jun-20 08:27N 34°27' W 120°27'0 0.0
2018-Jun-20 08:00N 34°27' W 120°27'0 0.0
2018-Jun-20 07:30N 34°27' W 120°27'0 0.0
2018-Jun-20 07:00N 34°27' W 120°27'0 0.0
2018-Jun-20 06:30N 34°27' W 120°27'0 0.0
2018-Jun-20 06:00N 34°27' W 120°27'0 0.0
2018-Jun-20 05:28N 34°27' W 120°27'0 0.0
2018-Jun-20 04:58N 34°27' W 120°27'0 0.1
2018-Jun-20 04:25N 34°27' W 120°27'0 0.0
2018-Jun-20 03:58N 34°27' W 120°27'0 0.0
2018-Jun-20 03:28N 34°27' W 120°27'0 0.0
2018-Jun-20 02:54N 34°27' W 120°27'0 0.0
2018-Jun-20 02:24N 34°27' W 120°27'0 0.0
2018-Jun-20 01:57N 34°27' W 120°27'0 0.0
2018-Jun-20 01:30N 34°27' W 120°27'0 0.0
2018-Jun-20 00:59N 34°27' W 120°27'2 4.4
2018-Jun-20 00:30N 34°26' W 120°24'4 7.1
2018-Jun-20 00:00N 34°25' W 120°20'4 6.9
2018-Jun-19 23:30N 34°24' W 120°16'3 6.7
2018-Jun-19 23:00N 34°24' W 120°12'4 7.0
2018-Jun-19 22:27N 34°23' W 120°08'3 6.7
2018-Jun-19 22:00N 34°23' W 120°04'5 7.1
2018-Jun-19 21:18N 34°22' W 119°58'3 7.5
2018-Jun-19 20:53N 34°21' W 119°54'3 7.5
2018-Jun-19 20:30N 34°21' W 119°51'4 7.7
2018-Jun-19 19:58N 34°20' W 119°46'4 7.6
2018-Jun-19 19:24N 34°19' W 119°41'4 7.5
2018-Jun-19 18:54N 34°18' W 119°36'4 7.4
2018-Jun-19 18:24N 34°18' W 119°32'4 7.5
2018-Jun-19 17:49N 34°17' W 119°27'3 8.2
2018-Jun-19 17:28N 34°16' W 119°23'3 7.5
2018-Jun-19 17:00N 34°15' W 119°19'3 5.2
2018-Jun-19 16:28N 34°15' W 119°16'0 1.0
2018-Jun-19 15:59N 34°14' W 119°16'0 0.2
2018-Jun-19 15:21N 34°15' W 119°16'0 0.0
2018-Jun-19 14:57N 34°15' W 119°16'0 0.0
2018-Jun-19 14:15N 34°15' W 119°16'0 0.0
2018-Jun-19 14:00N 34°15' W 119°16'0 0.0
2018-Jun-19 13:30N 34°15' W 119°16'0 0.0
2018-Jun-19 12:53N 34°15' W 119°16'0 0.0
2018-Jun-19 12:28N 34°15' W 119°16'0 0.0
2018-Jun-19 11:55N 34°15' W 119°16'0 0.0
2018-Jun-19 10:37N 34°15' W 119°16'0 0.0
2018-Jun-19 10:24N 34°15' W 119°16'0 0.0
2018-Jun-19 09:52N 34°15' W 119°16'0 0.0
2018-Jun-19 09:28N 34°15' W 119°16'0 0.0
2018-Jun-19 08:55N 34°15' W 119°16'0 0.0
2018-Jun-19 08:22N 34°15' W 119°16'0 0.0
2018-Jun-19 07:55N 34°15' W 119°16'0 0.0
2018-Jun-19 07:25N 34°15' W 119°16'0 0.0
2018-Jun-19 06:55N 34°15' W 119°16'0 0.0
2018-Jun-19 06:28N 34°15' W 119°16'0 0.0
2018-Jun-19 05:59N 34°15' W 119°16'0 0.0
2018-Jun-19 05:29N 34°15' W 119°16'0 0.0
2018-Jun-19 04:55N 34°15' W 119°16'  
Track history (hours):
 
Tides and Currents Weather Stations Pressure Air Temp Water Temp Dewpoint Dewpoint Depression Visibility Wind Speed Wind Dir Waves Ship Positions

Vive

Last reported at 2018-Jun-20 15:17 UTC. Time now 2018-Jun-20 22:32 UTC.
Position N 34°33' W 120°40'.

Length 16 m.

Type: Sailing vessel. MMSI: 257671570.

Date/timePositionNaut miles runAvg speedWind from/ knotsBaromVisibWave heightAir tempDewpointWater temp
2018-Jun-20 15:17N 34°33' W 120°40'2 5.6
2018-Jun-20 15:00N 34°32' W 120°39'3 5.3
2018-Jun-20 14:30N 34°30' W 120°37'3 5.6
2018-Jun-20 13:56N 34°28' W 120°34'3 6.2
2018-Jun-20 13:30N 34°26' W 120°32'3 6.9
2018-Jun-20 13:00N 34°26' W 120°27'1 1.5
2018-Jun-20 12:30N 34°27' W 120°27'0 0.0
2018-Jun-20 12:01N 34°27' W 120°27'0 0.0
2018-Jun-20 11:28N 34°27' W 120°27'0 0.0
2018-Jun-20 11:00N 34°27' W 120°27'0 0.0
2018-Jun-20 10:28N 34°27' W 120°27'0 0.0
2018-Jun-20 09:58N 34°27' W 120°27'0 0.0
2018-Jun-20 09:29N 34°27' W 120°27'0 0.0
2018-Jun-20 08:56N 34°27' W 120°27'0 0.0
2018-Jun-20 08:27N 34°27' W 120°27'0 0.0
2018-Jun-20 08:00N 34°27' W 120°27'0 0.0
2018-Jun-20 07:30N 34°27' W 120°27'0 0.0
2018-Jun-20 07:00N 34°27' W 120°27'0 0.0
2018-Jun-20 06:30N 34°27' W 120°27'0 0.0
2018-Jun-20 06:00N 34°27' W 120°27'0 0.0
2018-Jun-20 05:28N 34°27' W 120°27'0 0.0
2018-Jun-20 04:58N 34°27' W 120°27'0 0.1
2018-Jun-20 04:25N 34°27' W 120°27'0 0.0
2018-Jun-20 03:58N 34°27' W 120°27'0 0.0
2018-Jun-20 03:28N 34°27' W 120°27'0 0.0
2018-Jun-20 02:54N 34°27' W 120°27'0 0.0
2018-Jun-20 02:24N 34°27' W 120°27'0 0.0
2018-Jun-20 01:57N 34°27' W 120°27'0 0.0
2018-Jun-20 01:30N 34°27' W 120°27'0 0.0
2018-Jun-20 00:59N 34°27' W 120°27'2 4.4
2018-Jun-20 00:30N 34°26' W 120°24'4 7.1
2018-Jun-20 00:00N 34°25' W 120°20'4 6.9
2018-Jun-19 23:30N 34°24' W 120°16'3 6.7
2018-Jun-19 23:00N 34°24' W 120°12'4 7.0
2018-Jun-19 22:27N 34°23' W 120°08'3 6.7
2018-Jun-19 22:00N 34°23' W 120°04'5 7.1
2018-Jun-19 21:18N 34°22' W 119°58'3 7.5
2018-Jun-19 20:53N 34°21' W 119°54'3 7.5
2018-Jun-19 20:30N 34°21' W 119°51'4 7.7
2018-Jun-19 19:58N 34°20' W 119°46'4 7.6
2018-Jun-19 19:24N 34°19' W 119°41'4 7.5
2018-Jun-19 18:54N 34°18' W 119°36'4 7.4
2018-Jun-19 18:24N 34°18' W 119°32'4 7.5
2018-Jun-19 17:49N 34°17' W 119°27'3 8.2
2018-Jun-19 17:28N 34°16' W 119°23'3 7.5
2018-Jun-19 17:00N 34°15' W 119°19'3 5.2
2018-Jun-19 16:28N 34°15' W 119°16'0 1.0
2018-Jun-19 15:59N 34°14' W 119°16'0 0.2
2018-Jun-19 15:21N 34°15' W 119°16'0 0.0
2018-Jun-19 14:57N 34°15' W 119°16'0 0.0
2018-Jun-19 14:15N 34°15' W 119°16'0 0.0
2018-Jun-19 14:00N 34°15' W 119°16'0 0.0
2018-Jun-19 13:30N 34°15' W 119°16'0 0.0
2018-Jun-19 12:53N 34°15' W 119°16'0 0.0
2018-Jun-19 12:28N 34°15' W 119°16'0 0.0
2018-Jun-19 11:55N 34°15' W 119°16'0 0.0
2018-Jun-19 10:37N 34°15' W 119°16'0 0.0
2018-Jun-19 10:24N 34°15' W 119°16'0 0.0
2018-Jun-19 09:52N 34°15' W 119°16'0 0.0
2018-Jun-19 09:28N 34°15' W 119°16'0 0.0
2018-Jun-19 08:55N 34°15' W 119°16'0 0.0
2018-Jun-19 08:22N 34°15' W 119°16'0 0.0
2018-Jun-19 07:55N 34°15' W 119°16'0 0.0
2018-Jun-19 07:25N 34°15' W 119°16'0 0.0
2018-Jun-19 06:55N 34°15' W 119°16'0 0.0
2018-Jun-19 06:28N 34°15' W 119°16'0 0.0
2018-Jun-19 05:59N 34°15' W 119°16'0 0.0
2018-Jun-19 05:29N 34°15' W 119°16'0 0.0
2018-Jun-19 04:55N 34°15' W 119°16'  

Dump ship's entire track history